sensor_id;sensor_type;location;lat;lon;timestamp;temperature;humidity
23520;DHT22;11936;50.820;4.336;2024-03-08T00:01:06;9.00;99.90
23520;DHT22;11936;50.820;4.336;2024-03-08T00:03:32;9.00;99.90
23520;DHT22;11936;50.820;4.336;2024-03-08T00:05:59;8.90;99.90
23520;DHT22;11936;50.820;4.336;2024-03-08T00:08:24;9.00;99.90
23520;DHT22;11936;50.820;4.336;2024-03-08T00:10:50;9.00;99.90
23520;DHT22;11936;50.820;4.336;2024-03-08T00:13:16;9.00;99.90
23520;DHT22;11936;50.820;4.336;2024-03-08T00:15:41;9.20;99.90
23520;DHT22;11936;50.820;4.336;2024-03-08T00:18:07;9.20;99.90
23520;DHT22;11936;50.820;4.336;2024-03-08T00:20:33;9.30;99.90
23520;DHT22;11936;50.820;4.336;2024-03-08T00:22:58;9.40;99.90
23520;DHT22;11936;50.820;4.336;2024-03-08T00:25:24;9.10;99.90
23520;DHT22;11936;50.820;4.336;2024-03-08T00:27:50;9.00;99.90
23520;DHT22;11936;50.820;4.336;2024-03-08T00:30:15;8.80;99.90
23520;DHT22;11936;50.820;4.336;2024-03-08T00:32:41;8.70;99.90
23520;DHT22;11936;50.820;4.336;2024-03-08T00:35:07;8.60;99.90
23520;DHT22;11936;50.820;4.336;2024-03-08T00:37:33;8.60;99.90
23520;DHT22;11936;50.820;4.336;2024-03-08T00:40:00;8.50;99.90
23520;DHT22;11936;50.820;4.336;2024-03-08T00:42:25;8.70;99.90
23520;DHT22;11936;50.820;4.336;2024-03-08T00:44:51;8.70;99.90
23520;DHT22;11936;50.820;4.336;2024-03-08T00:47:17;8.50;99.90
23520;DHT22;11936;50.820;4.336;2024-03-08T00:49:42;8.50;99.90
23520;DHT22;11936;50.820;4.336;2024-03-08T00:52:08;8.50;99.90
23520;DHT22;11936;50.820;4.336;2024-03-08T00:54:35;8.50;99.90
23520;DHT22;11936;50.820;4.336;2024-03-08T00:57:03;8.40;99.90
23520;DHT22;11936;50.820;4.336;2024-03-08T00:59:30;8.50;99.90
23520;DHT22;11936;50.820;4.336;2024-03-08T01:02:01;8.40;99.90
23520;DHT22;11936;50.820;4.336;2024-03-08T01:04:27;8.70;99.90
23520;DHT22;11936;50.820;4.336;2024-03-08T01:06:57;8.60;99.90
23520;DHT22;11936;50.820;4.336;2024-03-08T01:09:26;8.50;99.90
23520;DHT22;11936;50.820;4.336;2024-03-08T01:11:53;8.50;99.90
23520;DHT22;11936;50.820;4.336;2024-03-08T01:14:20;8.60;99.90
23520;DHT22;11936;50.820;4.336;2024-03-08T01:16:48;8.40;99.90
23520;DHT22;11936;50.820;4.336;2024-03-08T01:19:14;8.30;99.90
23520;DHT22;11936;50.820;4.336;2024-03-08T01:21:41;8.30;99.90
23520;DHT22;11936;50.820;4.336;2024-03-08T01:24:06;8.30;99.90
23520;DHT22;11936;50.820;4.336;2024-03-08T01:26:32;8.30;99.90
23520;DHT22;11936;50.820;4.336;2024-03-08T01:29:00;8.40;99.90
23520;DHT22;11936;50.820;4.336;2024-03-08T01:31:25;8.30;99.90
23520;DHT22;11936;50.820;4.336;2024-03-08T01:33:51;8.30;99.90
23520;DHT22;11936;50.820;4.336;2024-03-08T01:36:16;8.20;99.90
23520;DHT22;11936;50.820;4.336;2024-03-08T01:38:44;8.10;99.90
23520;DHT22;11936;50.820;4.336;2024-03-08T01:41:10;7.90;99.90
23520;DHT22;11936;50.820;4.336;2024-03-08T01:43:36;8.00;99.90
23520;DHT22;11936;50.820;4.336;2024-03-08T01:46:01;8.10;99.90
23520;DHT22;11936;50.820;4.336;2024-03-08T01:48:28;8.20;99.90
23520;DHT22;11936;50.820;4.336;2024-03-08T01:50:58;8.10;99.90
23520;DHT22;11936;50.820;4.336;2024-03-08T01:53:24;8.30;99.90
23520;DHT22;11936;50.820;4.336;2024-03-08T01:55:55;8.40;99.90
23520;DHT22;11936;50.820;4.336;2024-03-08T01:58:22;8.30;99.90
23520;DHT22;11936;50.820;4.336;2024-03-08T02:00:48;8.30;99.90
23520;DHT22;11936;50.820;4.336;2024-03-08T02:03:18;8.20;99.90
23520;DHT22;11936;50.820;4.336;2024-03-08T02:05:44;8.00;99.90
23520;DHT22;11936;50.820;4.336;2024-03-08T02:08:10;7.90;99.90
23520;DHT22;11936;50.820;4.336;2024-03-08T02:10:46;8.00;99.90
23520;DHT22;11936;50.820;4.336;2024-03-08T02:13:12;7.90;99.90
23520;DHT22;11936;50.820;4.336;2024-03-08T02:15:57;7.90;99.90
23520;DHT22;11936;50.820;4.336;2024-03-08T02:18:27;8.00;99.90
23520;DHT22;11936;50.820;4.336;2024-03-08T02:20:58;8.00;99.90
23520;DHT22;11936;50.820;4.336;2024-03-08T02:23:24;8.10;99.90
23520;DHT22;11936;50.820;4.336;2024-03-08T02:25:50;8.10;99.90
23520;DHT22;11936;50.820;4.336;2024-03-08T02:28:17;8.00;99.90
23520;DHT22;11936;50.820;4.336;2024-03-08T02:30:46;8.00;99.90
23520;DHT22;11936;50.820;4.336;2024-03-08T02:33:14;7.80;99.90
23520;DHT22;11936;50.820;4.336;2024-03-08T02:35:45;7.90;99.90
23520;DHT22;11936;50.820;4.336;2024-03-08T02:38:12;7.90;99.90
23520;DHT22;11936;50.820;4.336;2024-03-08T02:40:38;7.70;99.90
23520;DHT22;11936;50.820;4.336;2024-03-08T02:43:04;7.80;99.90
23520;DHT22;11936;50.820;4.336;2024-03-08T02:45:30;7.50;99.90
23520;DHT22;11936;50.820;4.336;2024-03-08T02:47:56;7.50;99.90
23520;DHT22;11936;50.820;4.336;2024-03-08T02:50:22;7.50;99.90
23520;DHT22;11936;50.820;4.336;2024-03-08T02:52:48;7.50;99.90
23520;DHT22;11936;50.820;4.336;2024-03-08T02:55:14;7.60;99.90
23520;DHT22;11936;50.820;4.336;2024-03-08T02:57:42;7.70;99.90
23520;DHT22;11936;50.820;4.336;2024-03-08T03:00:13;7.70;99.90
23520;DHT22;11936;50.820;4.336;2024-03-08T03:02:39;7.70;99.90
23520;DHT22;11936;50.820;4.336;2024-03-08T03:05:05;7.50;99.90
23520;DHT22;11936;50.820;4.336;2024-03-08T03:07:32;7.20;99.90
23520;DHT22;11936;50.820;4.336;2024-03-08T03:09:59;7.20;99.90
23520;DHT22;11936;50.820;4.336;2024-03-08T03:12:27;7.10;99.90
23520;DHT22;11936;50.820;4.336;2024-03-08T03:14:52;7.10;99.90
23520;DHT22;11936;50.820;4.336;2024-03-08T03:17:18;7.20;99.90
23520;DHT22;11936;50.820;4.336;2024-03-08T03:19:44;7.10;99.90
23520;DHT22;11936;50.820;4.336;2024-03-08T03:22:10;7.10;99.90
23520;DHT22;11936;50.820;4.336;2024-03-08T03:24:36;7.30;99.90
23520;DHT22;11936;50.820;4.336;2024-03-08T03:27:04;7.50;99.90
23520;DHT22;11936;50.820;4.336;2024-03-08T03:29:37;7.60;99.90
23520;DHT22;11936;50.820;4.336;2024-03-08T03:32:03;7.50;99.90
23520;DHT22;11936;50.820;4.336;2024-03-08T03:34:29;7.50;99.90
23520;DHT22;11936;50.820;4.336;2024-03-08T03:36:55;7.60;99.90
23520;DHT22;11936;50.820;4.336;2024-03-08T03:39:21;7.50;99.90
23520;DHT22;11936;50.820;4.336;2024-03-08T03:41:48;7.40;99.90
23520;DHT22;11936;50.820;4.336;2024-03-08T03:44:17;7.40;99.90
23520;DHT22;11936;50.820;4.336;2024-03-08T03:46:43;7.10;99.90
23520;DHT22;11936;50.820;4.336;2024-03-08T03:49:12;7.20;99.90
23520;DHT22;11936;50.820;4.336;2024-03-08T03:51:38;7.00;99.90
23520;DHT22;11936;50.820;4.336;2024-03-08T03:54:03;7.00;99.90
23520;DHT22;11936;50.820;4.336;2024-03-08T03:56:29;7.10;99.90
23520;DHT22;11936;50.820;4.336;2024-03-08T03:58:56;7.00;99.90
23520;DHT22;11936;50.820;4.336;2024-03-08T04:01:22;7.00;99.90
23520;DHT22;11936;50.820;4.336;2024-03-08T04:03:47;7.00;99.90
23520;DHT22;11936;50.820;4.336;2024-03-08T04:06:13;6.80;99.90
23520;DHT22;11936;50.820;4.336;2024-03-08T04:08:39;6.90;99.90
23520;DHT22;11936;50.820;4.336;2024-03-08T04:11:05;7.00;99.90
23520;DHT22;11936;50.820;4.336;2024-03-08T04:13:31;7.00;99.90
23520;DHT22;11936;50.820;4.336;2024-03-08T04:15:56;7.00;99.90
23520;DHT22;11936;50.820;4.336;2024-03-08T04:18:22;6.90;99.90
23520;DHT22;11936;50.820;4.336;2024-03-08T04:20:47;6.90;99.90
23520;DHT22;11936;50.820;4.336;2024-03-08T04:23:13;6.90;99.90
23520;DHT22;11936;50.820;4.336;2024-03-08T04:25:39;6.90;99.90
23520;DHT22;11936;50.820;4.336;2024-03-08T04:28:08;6.90;99.90
23520;DHT22;11936;50.820;4.336;2024-03-08T04:30:37;6.60;99.90
23520;DHT22;11936;50.820;4.336;2024-03-08T04:33:03;6.40;99.90
23520;DHT22;11936;50.820;4.336;2024-03-08T04:35:29;6.50;99.90
23520;DHT22;11936;50.820;4.336;2024-03-08T04:37:55;6.50;99.90
23520;DHT22;11936;50.820;4.336;2024-03-08T04:40:23;6.50;99.90
23520;DHT22;11936;50.820;4.336;2024-03-08T04:42:49;6.70;99.90
23520;DHT22;11936;50.820;4.336;2024-03-08T04:45:17;6.80;99.90
23520;DHT22;11936;50.820;4.336;2024-03-08T04:47:42;6.70;99.90
23520;DHT22;11936;50.820;4.336;2024-03-08T04:50:08;6.70;99.90
23520;DHT22;11936;50.820;4.336;2024-03-08T04:52:34;6.60;99.90
23520;DHT22;11936;50.820;4.336;2024-03-08T04:55:01;6.70;99.90
23520;DHT22;11936;50.820;4.336;2024-03-08T04:57:29;6.60;99.90
23520;DHT22;11936;50.820;4.336;2024-03-08T04:59:55;6.60;99.90
23520;DHT22;11936;50.820;4.336;2024-03-08T05:02:21;6.60;99.90
23520;DHT22;11936;50.820;4.336;2024-03-08T05:04:48;6.70;99.90
23520;DHT22;11936;50.820;4.336;2024-03-08T05:07:13;6.70;99.90
23520;DHT22;11936;50.820;4.336;2024-03-08T05:09:39;6.90;99.90
23520;DHT22;11936;50.820;4.336;2024-03-08T05:12:06;6.80;99.90
23520;DHT22;11936;50.820;4.336;2024-03-08T05:14:33;6.80;99.90
23520;DHT22;11936;50.820;4.336;2024-03-08T05:17:00;6.30;99.90
23520;DHT22;11936;50.820;4.336;2024-03-08T05:19:26;6.30;99.90
23520;DHT22;11936;50.820;4.336;2024-03-08T05:21:52;6.50;99.90
23520;DHT22;11936;50.820;4.336;2024-03-08T05:24:18;6.60;99.90
23520;DHT22;11936;50.820;4.336;2024-03-08T05:26:44;6.50;99.90
23520;DHT22;11936;50.820;4.336;2024-03-08T05:29:11;6.50;99.90
23520;DHT22;11936;50.820;4.336;2024-03-08T05:31:51;6.30;99.90
23520;DHT22;11936;50.820;4.336;2024-03-08T05:34:20;6.30;99.90
23520;DHT22;11936;50.820;4.336;2024-03-08T05:36:47;6.20;99.90
23520;DHT22;11936;50.820;4.336;2024-03-08T05:39:16;6.20;99.90
23520;DHT22;11936;50.820;4.336;2024-03-08T05:41:43;6.40;99.90
23520;DHT22;11936;50.820;4.336;2024-03-08T05:44:08;6.20;99.90
23520;DHT22;11936;50.820;4.336;2024-03-08T05:46:34;6.30;99.90
23520;DHT22;11936;50.820;4.336;2024-03-08T05:49:03;6.30;99.90
23520;DHT22;11936;50.820;4.336;2024-03-08T05:51:31;6.40;99.90
23520;DHT22;11936;50.820;4.336;2024-03-08T05:53:58;6.50;99.90
23520;DHT22;11936;50.820;4.336;2024-03-08T05:56:24;6.40;99.90
23520;DHT22;11936;50.820;4.336;2024-03-08T05:58:50;6.30;99.90
23520;DHT22;11936;50.820;4.336;2024-03-08T06:01:16;6.40;99.90
23520;DHT22;11936;50.820;4.336;2024-03-08T06:03:41;6.40;99.90
23520;DHT22;11936;50.820;4.336;2024-03-08T06:06:14;6.30;99.90
23520;DHT22;11936;50.820;4.336;2024-03-08T06:08:40;6.40;99.90
23520;DHT22;11936;50.820;4.336;2024-03-08T06:11:08;6.60;99.90
23520;DHT22;11936;50.820;4.336;2024-03-08T06:13:34;6.60;99.90
23520;DHT22;11936;50.820;4.336;2024-03-08T06:16:00;6.40;99.90
23520;DHT22;11936;50.820;4.336;2024-03-08T06:18:32;6.40;99.90
23520;DHT22;11936;50.820;4.336;2024-03-08T06:20:58;6.50;99.90
23520;DHT22;11936;50.820;4.336;2024-03-08T06:23:23;6.40;99.90
23520;DHT22;11936;50.820;4.336;2024-03-08T06:25:49;6.30;99.90
23520;DHT22;11936;50.820;4.336;2024-03-08T06:28:15;6.40;99.90
23520;DHT22;11936;50.820;4.336;2024-03-08T06:30:41;6.20;99.90
23520;DHT22;11936;50.820;4.336;2024-03-08T06:33:06;6.20;99.90
23520;DHT22;11936;50.820;4.336;2024-03-08T06:35:36;6.10;99.90
23520;DHT22;11936;50.820;4.336;2024-03-08T06:38:04;6.00;99.90
23520;DHT22;11936;50.820;4.336;2024-03-08T06:40:29;6.10;99.90
23520;DHT22;11936;50.820;4.336;2024-03-08T06:42:55;6.30;99.90
23520;DHT22;11936;50.820;4.336;2024-03-08T06:45:20;6.50;99.90
23520;DHT22;11936;50.820;4.336;2024-03-08T06:47:47;6.60;99.90
23520;DHT22;11936;50.820;4.336;2024-03-08T06:50:13;6.40;99.90
23520;DHT22;11936;50.820;4.336;2024-03-08T06:52:40;6.30;99.90
23520;DHT22;11936;50.820;4.336;2024-03-08T06:55:08;6.30;99.90
23520;DHT22;11936;50.820;4.336;2024-03-08T06:57:40;6.40;99.90
23520;DHT22;11936;50.820;4.336;2024-03-08T07:00:09;6.40;99.90
23520;DHT22;11936;50.820;4.336;2024-03-08T07:02:36;6.30;99.90
23520;DHT22;11936;50.820;4.336;2024-03-08T07:05:02;6.30;99.90
23520;DHT22;11936;50.820;4.336;2024-03-08T07:07:29;6.30;99.90
23520;DHT22;11936;50.820;4.336;2024-03-08T07:09:57;6.30;99.90
23520;DHT22;11936;50.820;4.336;2024-03-08T07:12:23;6.30;99.90
23520;DHT22;11936;50.820;4.336;2024-03-08T07:14:49;6.40;99.90
23520;DHT22;11936;50.820;4.336;2024-03-08T07:17:15;6.20;99.90
23520;DHT22;11936;50.820;4.336;2024-03-08T07:19:41;6.30;99.90
23520;DHT22;11936;50.820;4.336;2024-03-08T07:22:07;6.20;99.90
23520;DHT22;11936;50.820;4.336;2024-03-08T07:24:36;6.20;99.90
23520;DHT22;11936;50.820;4.336;2024-03-08T07:27:06;6.10;99.90
23520;DHT22;11936;50.820;4.336;2024-03-08T07:29:32;6.10;99.90
23520;DHT22;11936;50.820;4.336;2024-03-08T07:31:59;6.20;99.90
23520;DHT22;11936;50.820;4.336;2024-03-08T07:34:27;6.30;99.90
23520;DHT22;11936;50.820;4.336;2024-03-08T07:36:57;6.40;99.90
23520;DHT22;11936;50.820;4.336;2024-03-08T07:39:23;6.40;99.90
23520;DHT22;11936;50.820;4.336;2024-03-08T07:41:49;6.40;99.90
23520;DHT22;11936;50.820;4.336;2024-03-08T07:44:18;6.40;99.90
23520;DHT22;11936;50.820;4.336;2024-03-08T07:46:44;6.20;99.90
23520;DHT22;11936;50.820;4.336;2024-03-08T07:49:09;6.30;99.90
23520;DHT22;11936;50.820;4.336;2024-03-08T07:51:36;6.30;99.90
23520;DHT22;11936;50.820;4.336;2024-03-08T07:54:03;6.30;99.90
23520;DHT22;11936;50.820;4.336;2024-03-08T07:56:30;6.10;99.90
23520;DHT22;11936;50.820;4.336;2024-03-08T07:58:56;6.20;99.90
23520;DHT22;11936;50.820;4.336;2024-03-08T08:01:22;6.20;99.90
23520;DHT22;11936;50.820;4.336;2024-03-08T08:03:48;6.10;99.90
23520;DHT22;11936;50.820;4.336;2024-03-08T08:06:16;6.20;99.90
23520;DHT22;11936;50.820;4.336;2024-03-08T08:08:42;6.20;99.90
23520;DHT22;11936;50.820;4.336;2024-03-08T08:11:08;6.20;99.90
23520;DHT22;11936;50.820;4.336;2024-03-08T08:13:34;6.30;99.90
23520;DHT22;11936;50.820;4.336;2024-03-08T08:16:02;6.40;99.90
23520;DHT22;11936;50.820;4.336;2024-03-08T08:18:28;6.50;99.90
23520;DHT22;11936;50.820;4.336;2024-03-08T08:20:55;6.50;99.90
23520;DHT22;11936;50.820;4.336;2024-03-08T08:23:21;6.60;99.90
23520;DHT22;11936;50.820;4.336;2024-03-08T08:25:47;6.50;99.90
23520;DHT22;11936;50.820;4.336;2024-03-08T08:28:16;6.70;99.90
23520;DHT22;11936;50.820;4.336;2024-03-08T08:30:43;6.80;99.90
23520;DHT22;11936;50.820;4.336;2024-03-08T08:33:09;7.00;99.90
23520;DHT22;11936;50.820;4.336;2024-03-08T08:35:39;7.00;99.90
23520;DHT22;11936;50.820;4.336;2024-03-08T08:38:04;7.10;99.90
23520;DHT22;11936;50.820;4.336;2024-03-08T08:40:30;7.30;99.90
23520;DHT22;11936;50.820;4.336;2024-03-08T08:42:57;7.20;99.90
23520;DHT22;11936;50.820;4.336;2024-03-08T08:45:23;7.10;99.90
23520;DHT22;11936;50.820;4.336;2024-03-08T08:47:49;6.90;99.90
23520;DHT22;11936;50.820;4.336;2024-03-08T08:50:15;7.00;99.90
23520;DHT22;11936;50.820;4.336;2024-03-08T08:52:41;7.00;99.90
23520;DHT22;11936;50.820;4.336;2024-03-08T08:55:10;7.00;99.90
23520;DHT22;11936;50.820;4.336;2024-03-08T08:57:40;7.00;99.90
23520;DHT22;11936;50.820;4.336;2024-03-08T09:00:06;7.10;99.90
23520;DHT22;11936;50.820;4.336;2024-03-08T09:02:33;7.20;99.90
23520;DHT22;11936;50.820;4.336;2024-03-08T09:04:59;7.20;99.90
23520;DHT22;11936;50.820;4.336;2024-03-08T09:07:26;7.10;99.90
23520;DHT22;11936;50.820;4.336;2024-03-08T09:09:53;7.40;99.90
23520;DHT22;11936;50.820;4.336;2024-03-08T09:12:22;7.40;99.90
23520;DHT22;11936;50.820;4.336;2024-03-08T09:14:48;7.50;99.90
23520;DHT22;11936;50.820;4.336;2024-03-08T09:17:14;7.50;99.90
23520;DHT22;11936;50.820;4.336;2024-03-08T09:19:43;7.50;99.90
23520;DHT22;11936;50.820;4.336;2024-03-08T09:22:09;7.70;99.90
23520;DHT22;11936;50.820;4.336;2024-03-08T09:24:34;7.60;99.90
23520;DHT22;11936;50.820;4.336;2024-03-08T09:27:00;7.60;99.90
23520;DHT22;11936;50.820;4.336;2024-03-08T09:29:25;7.80;99.90
23520;DHT22;11936;50.820;4.336;2024-03-08T09:31:51;7.80;99.90
23520;DHT22;11936;50.820;4.336;2024-03-08T09:34:17;8.00;99.90
23520;DHT22;11936;50.820;4.336;2024-03-08T09:36:44;8.30;99.90
23520;DHT22;11936;50.820;4.336;2024-03-08T09:39:10;8.40;99.90
23520;DHT22;11936;50.820;4.336;2024-03-08T09:41:42;8.60;99.90
23520;DHT22;11936;50.820;4.336;2024-03-08T09:44:09;8.80;99.90
23520;DHT22;11936;50.820;4.336;2024-03-08T09:46:34;8.90;99.90
23520;DHT22;11936;50.820;4.336;2024-03-08T09:49:00;9.10;99.90
23520;DHT22;11936;50.820;4.336;2024-03-08T09:51:33;9.20;99.90
23520;DHT22;11936;50.820;4.336;2024-03-08T09:54:00;9.20;99.90
23520;DHT22;11936;50.820;4.336;2024-03-08T09:56:26;9.30;99.90
23520;DHT22;11936;50.820;4.336;2024-03-08T09:58:53;9.30;99.90
23520;DHT22;11936;50.820;4.336;2024-03-08T10:01:41;9.40;99.90
23520;DHT22;11936;50.820;4.336;2024-03-08T10:04:07;9.50;99.90
23520;DHT22;11936;50.820;4.336;2024-03-08T10:06:35;9.50;99.90
23520;DHT22;11936;50.820;4.336;2024-03-08T10:09:01;9.50;99.90
23520;DHT22;11936;50.820;4.336;2024-03-08T10:11:27;9.60;99.90
23520;DHT22;11936;50.820;4.336;2024-03-08T10:13:53;9.60;99.90
23520;DHT22;11936;50.820;4.336;2024-03-08T10:16:19;9.60;99.90
23520;DHT22;11936;50.820;4.336;2024-03-08T10:18:45;9.80;99.90
23520;DHT22;11936;50.820;4.336;2024-03-08T10:21:11;9.80;99.90
23520;DHT22;11936;50.820;4.336;2024-03-08T10:23:39;9.70;99.90
23520;DHT22;11936;50.820;4.336;2024-03-08T10:28:36;9.80;99.90
23520;DHT22;11936;50.820;4.336;2024-03-08T10:31:02;10.00;99.90
23520;DHT22;11936;50.820;4.336;2024-03-08T10:33:28;10.00;99.90
23520;DHT22;11936;50.820;4.336;2024-03-08T10:35:54;10.10;99.90
23520;DHT22;11936;50.820;4.336;2024-03-08T10:38:23;10.10;99.90
23520;DHT22;11936;50.820;4.336;2024-03-08T10:40:49;10.30;99.90
23520;DHT22;11936;50.820;4.336;2024-03-08T10:43:24;10.40;99.90
23520;DHT22;11936;50.820;4.336;2024-03-08T10:46:17;10.30;99.90
23520;DHT22;11936;50.820;4.336;2024-03-08T10:48:49;10.20;99.90
23520;DHT22;11936;50.820;4.336;2024-03-08T10:51:16;10.00;99.90
23520;DHT22;11936;50.820;4.336;2024-03-08T10:53:44;10.10;99.90
23520;DHT22;11936;50.820;4.336;2024-03-08T10:56:11;10.20;99.90
23520;DHT22;11936;50.820;4.336;2024-03-08T10:58:40;10.20;99.90
23520;DHT22;11936;50.820;4.336;2024-03-08T11:01:06;10.40;99.90
23520;DHT22;11936;50.820;4.336;2024-03-08T11:08:40;10.40;99.90
23520;DHT22;11936;50.820;4.336;2024-03-08T11:11:06;10.40;99.90
23520;DHT22;11936;50.820;4.336;2024-03-08T11:13:48;10.50;99.90
23520;DHT22;11936;50.820;4.336;2024-03-08T11:19:01;10.60;99.90
23520;DHT22;11936;50.820;4.336;2024-03-08T11:21:30;10.70;99.90
23520;DHT22;11936;50.820;4.336;2024-03-08T11:23:59;10.70;99.90
23520;DHT22;11936;50.820;4.336;2024-03-08T11:26:25;10.80;99.90
23520;DHT22;11936;50.820;4.336;2024-03-08T11:28:50;10.80;99.90
23520;DHT22;11936;50.820;4.336;2024-03-08T11:33:47;11.00;99.90
23520;DHT22;11936;50.820;4.336;2024-03-08T11:36:21;11.00;99.90
23520;DHT22;11936;50.820;4.336;2024-03-08T11:38:48;11.10;99.90
23520;DHT22;11936;50.820;4.336;2024-03-08T11:41:23;11.10;99.90
23520;DHT22;11936;50.820;4.336;2024-03-08T11:43:50;11.00;99.90
23520;DHT22;11936;50.820;4.336;2024-03-08T11:46:26;10.80;99.90
23520;DHT22;11936;50.820;4.336;2024-03-08T11:48:54;10.80;99.90
23520;DHT22;11936;50.820;4.336;2024-03-08T11:51:21;10.80;99.90
23520;DHT22;11936;50.820;4.336;2024-03-08T11:53:49;10.80;99.90
23520;DHT22;11936;50.820;4.336;2024-03-08T11:56:18;10.70;99.90
23520;DHT22;11936;50.820;4.336;2024-03-08T11:58:54;10.70;99.90
23520;DHT22;11936;50.820;4.336;2024-03-08T12:01:22;10.70;99.90
23520;DHT22;11936;50.820;4.336;2024-03-08T12:03:58;10.60;99.90
23520;DHT22;11936;50.820;4.336;2024-03-08T12:06:24;10.70;99.90
23520;DHT22;11936;50.820;4.336;2024-03-08T12:08:50;10.70;99.90
23520;DHT22;11936;50.820;4.336;2024-03-08T12:11:17;10.80;99.90
23520;DHT22;11936;50.820;4.336;2024-03-08T12:13:44;10.90;99.90
23520;DHT22;11936;50.820;4.336;2024-03-08T12:16:12;11.00;99.90
23520;DHT22;11936;50.820;4.336;2024-03-08T12:18:38;11.10;99.90
23520;DHT22;11936;50.820;4.336;2024-03-08T12:21:11;11.20;99.90
23520;DHT22;11936;50.820;4.336;2024-03-08T12:23:39;11.40;99.90
23520;DHT22;11936;50.820;4.336;2024-03-08T12:26:16;11.30;99.90
23520;DHT22;11936;50.820;4.336;2024-03-08T12:28:43;11.20;99.90
23520;DHT22;11936;50.820;4.336;2024-03-08T12:31:13;11.30;99.90
23520;DHT22;11936;50.820;4.336;2024-03-08T12:36:16;11.20;99.90
23520;DHT22;11936;50.820;4.336;2024-03-08T12:38:48;11.30;99.90
23520;DHT22;11936;50.820;4.336;2024-03-08T12:41:17;11.30;99.90
23520;DHT22;11936;50.820;4.336;2024-03-08T12:43:44;11.40;99.90
23520;DHT22;11936;50.820;4.336;2024-03-08T12:46:17;11.60;99.90
23520;DHT22;11936;50.820;4.336;2024-03-08T12:48:43;11.60;99.90
23520;DHT22;11936;50.820;4.336;2024-03-08T12:51:12;11.60;99.90
23520;DHT22;11936;50.820;4.336;2024-03-08T12:53:38;11.60;99.90
23520;DHT22;11936;50.820;4.336;2024-03-08T12:56:06;11.60;99.90
23520;DHT22;11936;50.820;4.336;2024-03-08T12:58:34;11.40;99.90
23520;DHT22;11936;50.820;4.336;2024-03-08T13:01:02;11.60;99.90
23520;DHT22;11936;50.820;4.336;2024-03-08T13:03:30;11.60;99.90
23520;DHT22;11936;50.820;4.336;2024-03-08T13:05:57;11.60;99.90
23520;DHT22;11936;50.820;4.336;2024-03-08T13:08:22;11.70;99.90
23520;DHT22;11936;50.820;4.336;2024-03-08T13:10:50;11.70;99.90
23520;DHT22;11936;50.820;4.336;2024-03-08T13:13:16;11.90;99.90
23520;DHT22;11936;50.820;4.336;2024-03-08T13:15:42;11.90;99.90
23520;DHT22;11936;50.820;4.336;2024-03-08T13:18:08;12.00;99.90
23520;DHT22;11936;50.820;4.336;2024-03-08T13:20:35;12.00;99.90
23520;DHT22;11936;50.820;4.336;2024-03-08T13:23:04;12.20;99.90
23520;DHT22;11936;50.820;4.336;2024-03-08T13:25:30;12.40;99.90
23520;DHT22;11936;50.820;4.336;2024-03-08T13:27:56;12.60;99.90
23520;DHT22;11936;50.820;4.336;2024-03-08T13:30:24;12.70;99.90
23520;DHT22;11936;50.820;4.336;2024-03-08T13:32:52;12.70;99.90
23520;DHT22;11936;50.820;4.336;2024-03-08T13:35:18;12.80;99.90
23520;DHT22;11936;50.820;4.336;2024-03-08T13:37:50;13.00;99.90
23520;DHT22;11936;50.820;4.336;2024-03-08T13:40:17;13.10;99.90
23520;DHT22;11936;50.820;4.336;2024-03-08T13:42:49;13.10;99.90
23520;DHT22;11936;50.820;4.336;2024-03-08T13:45:15;13.20;99.90
23520;DHT22;11936;50.820;4.336;2024-03-08T13:47:47;13.30;99.90
23520;DHT22;11936;50.820;4.336;2024-03-08T13:50:12;13.20;99.90
23520;DHT22;11936;50.820;4.336;2024-03-08T13:52:39;13.30;99.90
23520;DHT22;11936;50.820;4.336;2024-03-08T13:55:05;13.30;99.90
23520;DHT22;11936;50.820;4.336;2024-03-08T13:57:32;13.40;99.90
23520;DHT22;11936;50.820;4.336;2024-03-08T13:59:58;13.40;99.90
23520;DHT22;11936;50.820;4.336;2024-03-08T14:02:23;13.40;99.90
23520;DHT22;11936;50.820;4.336;2024-03-08T14:04:53;13.40;99.90
23520;DHT22;11936;50.820;4.336;2024-03-08T14:07:20;13.50;99.90
23520;DHT22;11936;50.820;4.336;2024-03-08T14:09:46;13.50;99.90
23520;DHT22;11936;50.820;4.336;2024-03-08T14:12:11;13.50;99.90
23520;DHT22;11936;50.820;4.336;2024-03-08T14:14:37;13.50;99.90
23520;DHT22;11936;50.820;4.336;2024-03-08T14:17:03;13.70;99.90
23520;DHT22;11936;50.820;4.336;2024-03-08T14:19:29;13.70;99.80
23520;DHT22;11936;50.820;4.336;2024-03-08T14:21:59;13.60;99.90
23520;DHT22;11936;50.820;4.336;2024-03-08T14:24:25;13.50;99.90
23520;DHT22;11936;50.820;4.336;2024-03-08T14:26:51;13.50;99.90
23520;DHT22;11936;50.820;4.336;2024-03-08T14:29:17;13.60;99.90
23520;DHT22;11936;50.820;4.336;2024-03-08T14:31:45;13.60;99.90
23520;DHT22;11936;50.820;4.336;2024-03-08T14:34:11;13.60;99.90
23520;DHT22;11936;50.820;4.336;2024-03-08T14:36:39;13.60;99.90
23520;DHT22;11936;50.820;4.336;2024-03-08T14:39:05;13.70;99.80
23520;DHT22;11936;50.820;4.336;2024-03-08T14:41:32;13.70;99.60
23520;DHT22;11936;50.820;4.336;2024-03-08T14:43:58;13.80;99.90
23520;DHT22;11936;50.820;4.336;2024-03-08T14:46:24;13.90;99.90
23520;DHT22;11936;50.820;4.336;2024-03-08T14:48:50;14.00;99.90
23520;DHT22;11936;50.820;4.336;2024-03-08T14:51:19;14.20;99.60
23520;DHT22;11936;50.820;4.336;2024-03-08T14:53:47;14.20;99.30
23520;DHT22;11936;50.820;4.336;2024-03-08T14:56:13;14.20;99.30
23520;DHT22;11936;50.820;4.336;2024-03-08T14:58:42;14.30;99.10
23520;DHT22;11936;50.820;4.336;2024-03-08T15:01:10;14.30;98.80
23520;DHT22;11936;50.820;4.336;2024-03-08T15:03:36;14.30;98.60
23520;DHT22;11936;50.820;4.336;2024-03-08T15:06:04;14.30;98.30
23520;DHT22;11936;50.820;4.336;2024-03-08T15:08:36;14.20;98.30
23520;DHT22;11936;50.820;4.336;2024-03-08T15:11:02;14.20;97.80
23520;DHT22;11936;50.820;4.336;2024-03-08T15:13:27;14.00;98.20
23520;DHT22;11936;50.820;4.336;2024-03-08T15:16:00;13.90;98.60
23520;DHT22;11936;50.820;4.336;2024-03-08T15:18:26;13.80;98.80
23520;DHT22;11936;50.820;4.336;2024-03-08T15:20:56;13.70;98.80
23520;DHT22;11936;50.820;4.336;2024-03-08T15:23:21;13.70;99.30
23520;DHT22;11936;50.820;4.336;2024-03-08T15:25:50;13.70;98.70
23520;DHT22;11936;50.820;4.336;2024-03-08T15:28:16;13.70;98.80
23520;DHT22;11936;50.820;4.336;2024-03-08T15:30:44;13.80;98.70
23520;DHT22;11936;50.820;4.336;2024-03-08T15:33:13;13.90;98.70
23520;DHT22;11936;50.820;4.336;2024-03-08T15:35:41;14.00;98.90
23520;DHT22;11936;50.820;4.336;2024-03-08T15:38:07;14.10;98.70
23520;DHT22;11936;50.820;4.336;2024-03-08T15:40:33;14.10;98.10
23520;DHT22;11936;50.820;4.336;2024-03-08T15:43:01;14.00;98.40
23520;DHT22;11936;50.820;4.336;2024-03-08T15:45:26;14.10;98.40
23520;DHT22;11936;50.820;4.336;2024-03-08T15:47:52;14.00;97.80
23520;DHT22;11936;50.820;4.336;2024-03-08T15:50:18;13.90;98.40
23520;DHT22;11936;50.820;4.336;2024-03-08T15:52:46;14.00;98.20
23520;DHT22;11936;50.820;4.336;2024-03-08T15:55:16;13.90;98.00